Time;durP1;ratioP1;P1;durP2;ratioP2;P2;SDS_P1;SDS_P2;PMS_P1;PMS_P2;Temp;Humidity;BMP_temperature;BMP_pressure;BME280_temperature;BME280_humidity;BME280_pressure;Samples;Min_cycle;Max_cycle;Signal;HPM_P1;HPM_P2
2022/11/23 00:00:03;;;;;;;1999.90;999.90;;;9.40;99.90;;;;;;6732703;88;20188;-79
2022/11/23 00:10:04;;;;;;;1999.90;999.90;;;9.30;99.90;;;;;;6738273;88;20192;-79
2022/11/23 00:20:06;;;;;;;1999.90;999.90;;;9.40;99.90;;;;;;6735207;88;20347;-79
2022/11/23 00:30:08;;;;;;;1999.90;999.90;;;9.40;99.90;;;;;;6734895;88;20197;-80
2022/11/23 00:40:09;;;;;;;1999.90;999.90;;;9.30;99.90;;;;;;6735699;88;20269;-80
2022/11/23 00:50:09;;;;;;;1999.90;999.90;;;9.30;99.90;;;;;;6737204;88;20181;-81
2022/11/23 01:00:11;;;;;;;1999.90;999.90;;;9.40;99.90;;;;;;6734945;88;20202;-81
2022/11/23 01:10:12;;;;;;;1999.90;999.90;;;9.40;99.90;;;;;;6734962;88;20262;-79
2022/11/23 01:20:12;;;;;;;1999.90;999.90;;;9.40;99.90;;;;;;6730703;88;20718;-79
2022/11/23 01:30:13;;;;;;;1999.90;999.90;;;9.40;99.90;;;;;;6730142;88;20538;-80
2022/11/23 01:40:14;;;;;;;1999.90;999.90;;;9.30;99.90;;;;;;6731053;88;20232;-79
2022/11/23 01:50:15;;;;;;;1999.90;999.90;;;9.20;99.90;;;;;;6730660;88;20327;-79
2022/11/23 02:00:15;;;;;;;1999.90;999.90;;;9.00;99.90;;;;;;6736687;88;20173;-79
2022/11/23 02:10:17;;;;;;;1999.90;999.90;;;9.10;99.90;;;;;;6740995;88;20204;-79
2022/11/23 02:20:18;;;;;;;1999.90;999.90;;;9.20;99.90;;;;;;6733507;88;21434;-78
2022/11/23 02:30:19;;;;;;;1999.90;999.90;;;9.20;99.90;;;;;;6735054;88;20192;-80
2022/11/23 02:40:27;;;;;;;1999.90;999.90;;;9.20;99.90;;;;;;6731928;88;20284;-79
2022/11/23 02:50:28;;;;;;;1999.90;999.90;;;9.10;99.90;;;;;;6736125;88;20176;-78
2022/11/23 03:00:29;;;;;;;1999.90;999.90;;;9.10;99.90;;;;;;6738745;88;20210;-79
2022/11/23 03:10:30;;;;;;;1999.90;999.90;;;9.00;99.90;;;;;;6738066;88;20189;-78
2022/11/23 03:20:30;;;;;;;1999.90;999.90;;;8.90;99.90;;;;;;6732935;88;20205;-78
2022/11/23 03:30:31;;;;;;;1999.90;999.90;;;8.80;99.90;;;;;;6732830;88;20263;-79
2022/11/23 03:40:31;;;;;;;1999.90;999.90;;;8.90;99.90;;;;;;6734664;88;20220;-79
2022/11/23 03:50:32;;;;;;;1999.90;999.90;;;9.00;99.90;;;;;;6736976;88;20354;-79
2022/11/23 04:00:33;;;;;;;1999.90;999.90;;;9.00;99.90;;;;;;6734981;88;20211;-80
2022/11/23 04:10:34;;;;;;;1999.90;999.90;;;9.00;99.90;;;;;;6737222;88;20190;-78
2022/11/23 04:20:34;;;;;;;1999.90;999.90;;;9.10;99.90;;;;;;6733286;88;20214;-77
2022/11/23 04:30:35;;;;;;;1999.90;999.90;;;9.10;99.90;;;;;;6732007;88;20234;-78
2022/11/23 04:40:36;;;;;;;1999.90;999.90;;;9.10;99.90;;;;;;6738306;88;20222;-80
2022/11/23 04:50:37;;;;;;;1999.90;999.90;;;9.10;99.90;;;;;;6739208;88;20185;-79
2022/11/23 05:00:37;;;;;;;1999.90;999.90;;;9.00;99.90;;;;;;6738038;88;20197;-79
2022/11/23 05:10:38;;;;;;;1999.90;999.90;;;8.70;99.90;;;;;;6733832;88;20514;-80
2022/11/23 05:20:39;;;;;;;1999.90;999.90;;;8.60;99.90;;;;;;6738065;88;20206;-79
2022/11/23 05:30:39;;;;;;;1999.90;999.90;;;8.50;99.90;;;;;;6737796;88;20206;-80
2022/11/23 05:40:40;;;;;;;1999.90;999.90;;;8.50;99.90;;;;;;6734946;88;20194;-79
2022/11/23 05:50:40;;;;;;;1999.90;999.90;;;8.60;99.90;;;;;;6733015;88;20209;-80
2022/11/23 06:00:41;;;;;;;1999.90;999.90;;;8.70;99.90;;;;;;6727413;88;20188;-80
2022/11/23 06:10:41;;;;;;;1999.90;999.90;;;8.70;99.90;;;;;;6732730;88;20272;-77
2022/11/23 06:20:42;;;;;;;1999.90;999.90;;;8.80;99.90;;;;;;6741709;88;20212;-81
2022/11/23 06:30:42;;;;;;;1999.90;999.90;;;8.80;99.90;;;;;;6738550;88;20165;-81
2022/11/23 06:40:43;;;;;;;1999.90;999.90;;;8.70;99.90;;;;;;6741101;76;20213;-74
2022/11/23 06:50:43;;;;;;;1999.90;999.90;;;8.70;99.90;;;;;;6725681;88;20602;-74
2022/11/23 07:00:44;;;;;;;1999.90;999.90;;;8.60;99.90;;;;;;6719694;88;20237;-74
2022/11/23 07:10:44;;;;;;;1999.90;999.90;;;8.50;99.90;;;;;;6718755;88;20202;-74
2022/11/23 07:20:45;;;;;;;1999.90;999.90;;;8.50;99.90;;;;;;6724591;88;20312;-74
2022/11/23 07:30:48;;;;;;;1999.90;999.90;;;8.60;99.90;;;;;;6726276;88;20189;-75
2022/11/23 07:40:50;;;;;;;1999.90;999.90;;;8.40;99.90;;;;;;6718632;88;20218;-74
2022/11/23 07:50:53;;;;;;;1999.90;999.90;;;8.30;99.90;;;;;;6739285;88;20193;-75
2022/11/23 08:00:54;;;;;;;1999.90;999.90;;;8.30;99.90;;;;;;6738885;88;20287;-75
2022/11/23 08:10:55;;;;;;;1999.90;999.90;;;8.60;99.90;;;;;;6728313;88;20625;-75
2022/11/23 08:20:59;;;;;;;1999.90;999.90;;;8.80;99.90;;;;;;6720396;88;20772;-77
2022/11/23 08:31:08;;;;;;;1999.90;999.90;;;9.10;99.90;;;;;;6727147;88;20190;-75
2022/11/23 08:41:09;;;;;;;1999.90;999.90;;;9.10;99.90;;;;;;6723600;88;20185;-75
2022/11/23 08:51:10;;;;;;;1999.90;999.90;;;9.00;99.90;;;;;;6731993;88;20664;-74
2022/11/23 09:01:12;;;;;;;1999.90;999.90;;;9.40;99.90;;;;;;6730569;88;20189;-74
2022/11/23 09:11:14;;;;;;;1999.90;999.90;;;9.70;99.90;;;;;;6724479;88;20203;-74
2022/11/23 09:21:15;;;;;;;1999.90;999.90;;;9.60;99.90;;;;;;6725383;88;20663;-75
2022/11/23 09:31:16;;;;;;;1999.90;999.90;;;9.60;99.90;;;;;;6724251;88;20919;-77
2022/11/23 09:41:36;;;;;;;1999.90;999.90;;;9.60;99.90;;;;;;6729631;88;20207;-74
2022/11/23 09:51:39;;;;;;;1999.90;999.90;;;9.70;99.90;;;;;;6725557;88;20912;-74
2022/11/23 10:01:39;;;;;;;1999.90;999.90;;;9.70;99.90;;;;;;6726857;88;20193;-74
2022/11/23 10:11:43;;;;;;;1999.90;999.90;;;9.80;99.90;;;;;;6720474;88;20207;-75
2022/11/23 10:21:49;;;;;;;1999.90;999.90;;;9.90;99.90;;;;;;6726369;88;20625;-75
2022/11/23 10:31:51;;;;;;;1999.90;999.90;;;9.80;99.90;;;;;;6726827;88;20237;-74
2022/11/23 10:41:56;;;;;;;1999.90;999.90;;;9.90;99.90;;;;;;6727650;88;20251;-74
2022/11/23 10:52:02;;;;;;;1999.90;999.90;;;10.00;99.90;;;;;;6723522;88;20622;-74
2022/11/23 11:02:21;;;;;;;1999.90;999.90;;;10.00;99.90;;;;;;6735399;88;20217;-76
2022/11/23 11:12:22;;;;;;;1999.90;999.90;;;10.50;99.90;;;;;;6731010;88;20178;-74
2022/11/23 11:22:34;;;;;;;1999.90;999.90;;;11.00;99.90;;;;;;6723865;88;20212;-73
2022/11/23 11:32:51;;;;;;;1999.90;999.90;;;11.40;99.90;;;;;;6732340;88;20186;-75
2022/11/23 11:43:14;;;;;;;1999.90;999.90;;;10.80;99.90;;;;;;6733950;88;20196;-75
2022/11/23 11:53:21;;;;;;;1999.90;999.90;;;11.20;99.90;;;;;;6730791;88;20220;-74
2022/11/23 12:03:35;;;;;;;1999.90;999.90;;;10.70;99.90;;;;;;6735171;88;20221;-74
2022/11/23 12:13:40;;;;;;;1999.90;999.90;;;10.70;99.90;;;;;;6729729;88;20293;-76
2022/11/23 12:23:52;;;;;;;1999.90;999.90;;;10.60;99.90;;;;;;6723119;88;20504;-74
2022/11/23 12:34:11;;;;;;;1999.90;999.90;;;10.60;99.90;;;;;;6740528;88;20184;-75
2022/11/23 12:44:42;;;;;;;1999.90;999.90;;;11.40;99.90;;;;;;6757711;76;20219;-77
2022/11/23 12:54:59;;;;;;;1999.90;999.90;;;10.80;99.90;;;;;;6741463;88;20244;-77
2022/11/23 13:05:24;;;;;;;1999.90;999.90;;;10.60;99.90;;;;;;6741366;88;20188;-77
2022/11/23 13:15:52;;;;;;;1999.90;999.90;;;10.50;99.90;;;;;;6744417;88;20177;-77
2022/11/23 13:26:14;;;;;;;1999.90;999.90;;;10.60;99.90;;;;;;6742576;88;20310;-78
2022/11/23 13:36:30;;;;;;;1999.90;999.90;;;11.20;99.90;;;;;;6739447;88;20206;-78
2022/11/23 13:46:32;;;;;;;1999.90;999.90;;;11.10;99.90;;;;;;6738755;88;20185;-78
2022/11/23 13:56:39;;;;;;;1999.90;999.90;;;10.60;99.90;;;;;;6737008;88;20294;-78
2022/11/23 14:06:50;;;;;;;1999.90;999.90;;;10.60;99.90;;;;;;6738339;88;20235;-78
2022/11/23 14:17:20;;;;;;;1999.90;999.90;;;10.20;99.90;;;;;;6744930;88;20184;-78
2022/11/23 14:27:45;;;;;;;1999.90;999.90;;;10.00;99.90;;;;;;6742241;88;20255;-78
2022/11/23 14:37:51;;;;;;;1999.90;999.90;;;10.00;99.90;;;;;;6741859;88;20272;-78
2022/11/23 14:47:52;;;;;;;1999.90;999.90;;;10.00;99.90;;;;;;6743088;88;20221;-78
2022/11/23 14:57:57;;;;;;;1999.90;999.90;;;10.00;99.90;;;;;;6745445;88;20231;-78
2022/11/23 15:08:16;;;;;;;1999.90;999.90;;;10.10;99.90;;;;;;6743247;88;20205;-77
2022/11/23 15:18:38;;;;;;;1999.90;999.90;;;10.00;99.90;;;;;;6746923;88;20270;-78
2022/11/23 15:28:39;;;;;;;1999.90;999.90;;;9.90;99.90;;;;;;6744369;88;20235;-78
2022/11/23 15:38:40;;;;;;;1999.90;999.90;;;9.90;99.90;;;;;;6740991;88;20198;-78
2022/11/23 15:48:40;;;;;;;1999.90;999.90;;;9.90;99.90;;;;;;6744069;88;20181;-78
2022/11/23 15:58:46;;;;;;;1999.90;999.90;;;9.80;99.90;;;;;;6743911;88;20623;-78
2022/11/23 16:08:47;;;;;;;;;;;9.50;99.90;;;;;;6744425;87;20213;-78
2022/11/23 16:18:55;;;;;;;1999.90;999.90;;;9.00;99.90;;;;;;6743539;88;20163;-77
2022/11/23 16:28:58;;;;;;;1999.90;999.90;;;8.60;99.90;;;;;;6739800;88;20275;-79
2022/11/23 16:38:58;;;;;;;1999.90;999.90;;;8.30;99.90;;;;;;6741196;88;20201;-78
2022/11/23 16:48:59;;;;;;;1999.90;999.90;;;8.20;99.90;;;;;;6741558;88;20189;-77
2022/11/23 16:59:00;;;;;;;1999.90;999.90;;;8.00;99.90;;;;;;6737225;88;20187;-77
2022/11/23 17:09:00;;;;;;;1999.90;999.90;;;7.70;99.90;;;;;;6744804;88;20667;-77
2022/11/23 17:19:01;;;;;;;1999.90;999.90;;;7.60;99.90;;;;;;6744653;88;20963;-77
2022/11/23 17:29:05;;;;;;;1999.90;999.90;;;7.60;99.90;;;;;;6739797;88;20176;-77
2022/11/23 17:39:06;;;;;;;1999.90;999.90;;;7.50;99.90;;;;;;6737118;88;20443;-77
2022/11/23 17:49:15;;;;;;;1999.90;999.90;;;7.60;99.90;;;;;;6734798;88;20197;-77
2022/11/23 17:59:19;;;;;;;1999.90;999.90;;;7.60;99.90;;;;;;6725957;88;21021;-76
2022/11/23 18:09:20;;;;;;;1999.90;999.90;;;7.50;99.90;;;;;;6732801;88;20182;-76
2022/11/23 18:19:20;;;;;;;1999.90;999.90;;;7.50;99.90;;;;;;6724185;88;20241;-75
2022/11/23 18:29:21;;;;;;;1999.90;999.90;;;7.40;99.90;;;;;;6726495;88;20312;-76
2022/11/23 18:39:21;;;;;;;1999.90;999.90;;;7.40;99.90;;;;;;6723936;88;20721;-76
2022/11/23 18:49:22;;;;;;;1999.90;999.90;;;7.40;99.90;;;;;;6727211;88;20546;-76
2022/11/23 18:59:23;;;;;;;1999.90;999.90;;;7.50;99.90;;;;;;6727194;88;20533;-76
2022/11/23 19:09:23;;;;;;;1999.90;999.90;;;7.50;99.90;;;;;;6733270;88;20196;-77
2022/11/23 19:19:24;;;;;;;1999.90;999.90;;;7.40;99.90;;;;;;6733670;88;20177;-77
2022/11/23 19:29:25;;;;;;;1999.90;999.90;;;7.40;99.90;;;;;;6729892;88;21424;-77
2022/11/23 19:39:26;;;;;;;1999.90;999.90;;;7.30;99.90;;;;;;6732358;88;20183;-78
2022/11/23 19:49:29;;;;;;;1999.90;999.90;;;7.30;99.90;;;;;;6738906;88;20189;-78
2022/11/23 19:59:29;;;;;;;1999.90;999.90;;;7.20;99.90;;;;;;6735635;88;20182;-78
2022/11/23 20:09:32;;;;;;;1999.90;999.90;;;7.20;99.90;;;;;;6730152;88;20683;-77
2022/11/23 20:19:33;;;;;;;1999.90;999.90;;;7.20;99.90;;;;;;6733569;88;20242;-78
2022/11/23 20:29:33;;;;;;;1999.90;999.90;;;7.10;99.90;;;;;;6736861;88;20285;-79
2022/11/23 20:39:34;;;;;;;1999.90;999.90;;;7.20;99.90;;;;;;6738426;88;20192;-77
2022/11/23 20:49:34;;;;;;;1999.90;999.90;;;7.10;99.90;;;;;;6730182;88;20638;-77
2022/11/23 20:59:35;;;;;;;1999.90;999.90;;;7.00;99.90;;;;;;6732233;88;20638;-76
2022/11/23 21:09:35;;;;;;;1999.90;999.90;;;6.80;99.90;;;;;;6733107;88;20505;-77
2022/11/23 21:19:38;;;;;;;1999.90;999.90;;;6.60;99.90;;;;;;6737585;88;20193;-76
2022/11/23 21:29:39;;;;;;;1999.90;999.90;;;6.60;99.90;;;;;;6729988;88;20257;-76
2022/11/23 21:39:40;;;;;;;1999.90;999.90;;;6.40;99.90;;;;;;6730981;88;20676;-76
2022/11/23 21:49:40;;;;;;;1999.90;999.90;;;6.40;99.90;;;;;;6734345;88;20512;-77
2022/11/23 21:59:41;;;;;;;1999.90;999.90;;;6.50;99.90;;;;;;6734229;88;20229;-74
2022/11/23 22:09:41;;;;;;;1999.90;999.90;;;6.70;99.90;;;;;;6733437;88;20196;-76
2022/11/23 22:19:42;;;;;;;1999.90;999.90;;;7.20;99.90;;;;;;6734384;88;20206;-76
2022/11/23 22:29:42;;;;;;;1999.90;999.90;;;7.60;99.90;;;;;;6733632;88;20243;-76
2022/11/23 22:39:43;;;;;;;1999.90;999.90;;;8.00;99.90;;;;;;6734656;88;20219;-74
2022/11/23 22:49:43;;;;;;;1999.90;999.90;;;8.30;99.90;;;;;;6733442;88;20261;-75
2022/11/23 22:59:44;;;;;;;1999.90;999.90;;;8.20;99.90;;;;;;6733551;88;20194;-76
2022/11/23 23:09:44;;;;;;;1999.90;999.90;;;8.20;99.90;;;;;;6735146;88;20241;-77
2022/11/23 23:19:45;;;;;;;1999.90;999.90;;;8.40;99.90;;;;;;6733397;88;20187;-76
2022/11/23 23:29:46;;;;;;;1999.90;999.90;;;8.30;99.90;;;;;;6733363;88;22114;-75
2022/11/23 23:39:46;;;;;;;1999.90;999.90;;;8.40;99.90;;;;;;6732556;88;20272;-76
2022/11/23 23:49:47;;;;;;;1999.90;999.90;;;8.40;99.90;;;;;;6732546;88;20220;-77
2022/11/23 23:59:47;;;;;;;1999.90;999.90;;;8.40;99.90;;;;;;6733577;88;20199;-76
